Main page
METAR-TAF:

METAR-TAF

Airports :

Raton Municipal Airport

Raton, New Mexico, United States

latitude: 36-44-31N, longitude: 104-39-28W, elevation: 6347 ft

Current weather observation

The report was made 1 hour and 8 minutes ago, at 15:53 UTC
Wind 5 mph from the South/Southeast
Temperature 70°F
Humidity 49%
Pressure 30.11 in. Hg
Visibility: 10 miles
Clear sky

METAR: KRTN 151553Z AUTO 15004KT 10SM CLR 21/10 A3011 RMK AO2 SLP111 T02110100

Time: 11:01 (17:01 UTC)


TAF: missing

Weather observations and forecasts of more than 4000 airports (METAR and TAF reports).

The available stations are represented by yellow and red dots on the map.

Hover mouse over dot to see the name of the station.

Then click to see weather observations and forecasts.

To change the map : click on the green buttons with a black cross to zoom in, on the green button with a dash to zoom out, or on the green arrows for adjacent maps.


METAR-TAF: